Time;durP1;ratioP1;P1;durP2;ratioP2;P2;SDS_P1;SDS_P2;PMS_P1;PMS_P2;Temp;Humidity;BMP_temperature;BMP_pressure;BME280_temperature;BME280_humidity;BME280_pressure;Samples;Min_cycle;Max_cycle;Signal;HPM_P1;HPM_P2
2021/09/16 00:00:27;;;;;;;;;15.50;15.50;;;;;;;;4963611;28;9026;-84
2021/09/16 00:02:54;;;;;;;;;13.75;13.75;;;;;;;;4965695;28;9530;-76
2021/09/16 00:05:21;;;;;;;;;10.75;10.75;;;;;;;;4958200;28;8992;-82
2021/09/16 00:07:49;;;;;;;;;13.00;12.50;;;;;;;;4961509;28;8869;-84
2021/09/16 00:10:17;;;;;;;;;17.25;16.75;;;;;;;;4964670;28;8874;-90
2021/09/16 00:12:44;;;;;;;;;17.50;13.75;;;;;;;;4965214;28;8883;-85
2021/09/16 00:15:13;;;;;;;;;15.00;15.00;;;;;;;;4959615;28;8852;-83
2021/09/16 00:17:42;;;;;;;;;9.75;9.75;;;;;;;;4964154;28;8889;-92
2021/09/16 00:20:11;;;;;;;;;15.25;14.75;;;;;;;;4965869;28;8992;-81
2021/09/16 00:22:38;;;;;;;;;16.25;15.25;;;;;;;;4963136;28;8869;-84
2021/09/16 00:25:09;;;;;;;;;13.25;10.50;;;;;;;;4968114;28;8931;-80
2021/09/16 00:27:36;;;;;;;;;13.75;12.50;;;;;;;;4961084;28;8862;-80
2021/09/16 00:30:05;;;;;;;;;16.00;14.25;;;;;;;;4966341;28;8868;-81
2021/09/16 00:32:32;;;;;;;;;12.50;12.50;;;;;;;;4962107;28;8918;-80
2021/09/16 00:35:01;;;;;;;;;18.00;14.50;;;;;;;;4965826;28;8985;-86
2021/09/16 00:37:28;;;;;;;;;12.50;12.50;;;;;;;;4957637;28;8988;-77
2021/09/16 00:39:55;;;;;;;;;14.75;14.75;;;;;;;;4967238;28;8861;-86
2021/09/16 00:42:23;;;;;;;;;15.00;15.00;;;;;;;;4969388;28;8907;-83
2021/09/16 00:44:50;;;;;;;;;12.75;12.75;;;;;;;;4965453;28;8904;-85
2021/09/16 00:47:18;;;;;;;;;12.00;12.00;;;;;;;;4962031;28;8887;-78
2021/09/16 00:49:46;;;;;;;;;14.25;14.25;;;;;;;;4966836;28;8876;-83
2021/09/16 00:52:15;;;;;;;;;14.25;12.50;;;;;;;;4966514;28;8908;-77
2021/09/16 00:54:45;;;;;;;;;14.00;11.75;;;;;;;;4968288;28;8904;-78
2021/09/16 00:57:14;;;;;;;;;13.00;13.00;;;;;;;;4959492;28;9011;-83
2021/09/16 00:59:42;;;;;;;;;14.25;12.50;;;;;;;;4977254;28;8899;-76
2021/09/16 01:02:09;;;;;;;;;17.50;15.50;;;;;;;;4967091;28;8826;-81
2021/09/16 01:04:36;;;;;;;;;15.75;15.50;;;;;;;;4965335;28;8877;-79
2021/09/16 01:07:04;;;;;;;;;17.25;14.00;;;;;;;;4967278;28;8869;-83
2021/09/16 01:09:33;;;;;;;;;13.00;12.50;;;;;;;;4967341;28;8889;-79
2021/09/16 01:12:01;;;;;;;;;16.00;14.25;;;;;;;;4968598;28;8858;-84
2021/09/16 01:14:30;;;;;;;;;13.75;12.50;;;;;;;;4967647;28;8895;-87
2021/09/16 01:17:00;;;;;;;;;17.00;16.50;;;;;;;;4966960;28;8955;-76
2021/09/16 01:19:28;;;;;;;;;10.50;10.50;;;;;;;;4963396;28;8897;-81
2021/09/16 01:21:55;;;;;;;;;12.00;12.00;;;;;;;;4958379;28;8877;-77
2021/09/16 01:24:24;;;;;;;;;15.25;15.25;;;;;;;;4974559;28;8907;-77
2021/09/16 01:26:51;;;;;;;;;17.00;15.00;;;;;;;;4975334;28;8929;-77
2021/09/16 01:29:19;;;;;;;;;12.25;12.25;;;;;;;;4972923;28;8862;-76
2021/09/16 01:31:48;;;;;;;;;13.25;13.25;;;;;;;;4971513;28;9727;-76
2021/09/16 01:34:17;;;;;;;;;13.50;13.25;;;;;;;;4976965;28;8865;-76
2021/09/16 01:36:47;;;;;;;;;14.50;14.50;;;;;;;;4968481;28;8873;-78
2021/09/16 01:39:16;;;;;;;;;13.00;11.00;;;;;;;;4967542;28;8877;-85
2021/09/16 01:41:45;;;;;;;;;14.00;11.50;;;;;;;;4960061;28;8889;-77
2021/09/16 01:44:13;;;;;;;;;12.50;12.50;;;;;;;;4967816;28;8964;-76
2021/09/16 01:46:40;;;;;;;;;15.50;14.00;;;;;;;;4964184;28;9011;-80
2021/09/16 01:49:08;;;;;;;;;10.00;10.00;;;;;;;;4963727;28;8893;-81
2021/09/16 01:51:35;;;;;;;;;15.00;11.50;;;;;;;;4961352;28;9663;-81
2021/09/16 01:54:04;;;;;;;;;17.00;13.00;;;;;;;;4967054;28;8885;-81
2021/09/16 01:56:31;;;;;;;;;13.75;11.75;;;;;;;;4968439;28;8952;-79
2021/09/16 01:59:00;;;;;;;;;13.75;11.50;;;;;;;;4964344;28;8899;-76
2021/09/16 02:01:28;;;;;;;;;15.75;15.75;;;;;;;;4956452;28;8875;-86
2021/09/16 02:03:55;;;;;;;;;16.25;16.25;;;;;;;;4959595;28;9055;-79
2021/09/16 02:06:23;;;;;;;;;14.50;14.50;;;;;;;;4967708;28;8891;-76
2021/09/16 02:08:50;;;;;;;;;14.00;12.75;;;;;;;;4966151;28;8903;-76
2021/09/16 02:11:17;;;;;;;;;15.75;15.75;;;;;;;;4960919;28;8869;-80
2021/09/16 02:13:45;;;;;;;;;14.75;13.75;;;;;;;;4968936;28;8849;-84
2021/09/16 02:16:13;;;;;;;;;15.50;15.25;;;;;;;;4961050;28;8910;-84
2021/09/16 02:18:41;;;;;;;;;13.75;12.75;;;;;;;;4965337;28;8908;-84
2021/09/16 02:21:08;;;;;;;;;18.75;18.75;;;;;;;;4966548;28;8861;-81
2021/09/16 02:23:35;;;;;;;;;13.75;13.00;;;;;;;;4967008;28;8936;-77
2021/09/16 02:26:02;;;;;;;;;15.75;15.75;;;;;;;;4965621;28;8870;-82
2021/09/16 02:28:30;;;;;;;;;16.25;15.75;;;;;;;;4966530;28;8865;-81
2021/09/16 02:30:57;;;;;;;;;14.00;14.00;;;;;;;;4966059;28;8810;-90
2021/09/16 02:33:27;;;;;;;;;13.50;12.25;;;;;;;;4965565;28;8995;-89
2021/09/16 02:35:54;;;;;;;;;16.50;16.50;;;;;;;;4965603;28;8896;-78
2021/09/16 02:38:23;;;;;;;;;13.00;11.25;;;;;;;;4956995;28;8885;-78
2021/09/16 02:40:50;;;;;;;;;13.00;13.00;;;;;;;;4966562;28;8884;-89
2021/09/16 02:43:17;;;;;;;;;13.75;13.75;;;;;;;;4960198;28;8923;-89
2021/09/16 02:45:45;;;;;;;;;19.50;15.75;;;;;;;;4966733;28;8881;-84
2021/09/16 02:48:13;;;;;;;;;16.00;12.50;;;;;;;;4968008;28;8853;-76
2021/09/16 02:50:41;;;;;;;;;14.75;13.25;;;;;;;;4966629;28;8905;-76
2021/09/16 02:53:08;;;;;;;;;12.25;12.25;;;;;;;;5482350;22;8877;-79
2021/09/16 02:55:36;;;;;;;;;14.00;14.00;;;;;;;;5022960;28;8870;-78
2021/09/16 02:58:03;;;;;;;;;16.00;16.00;;;;;;;;5024757;28;8863;-76
2021/09/16 03:00:32;;;;;;;;;11.75;10.00;;;;;;;;5019268;28;8787;-83
2021/09/16 03:02:59;;;;;;;;;15.50;15.00;;;;;;;;5040684;28;8872;-76
2021/09/16 03:05:26;;;;;;;;;13.75;12.25;;;;;;;;5045294;28;8876;-77
2021/09/16 03:07:55;;;;;;;;;10.25;9.50;;;;;;;;5049155;28;8895;-78
2021/09/16 03:10:22;;;;;;;;;12.00;12.00;;;;;;;;5046799;28;8994;-86
2021/09/16 03:12:49;;;;;;;;;12.00;12.00;;;;;;;;5047440;28;8922;-77
2021/09/16 03:15:17;;;;;;;;;12.75;12.75;;;;;;;;5043949;28;8876;-83
2021/09/16 03:17:44;;;;;;;;;12.75;12.75;;;;;;;;5043217;28;8916;-79
2021/09/16 03:20:13;;;;;;;;;13.75;12.25;;;;;;;;5042174;28;8872;-78
2021/09/16 03:22:40;;;;;;;;;10.00;10.00;;;;;;;;5043743;28;8902;-81
2021/09/16 03:25:11;;;;;;;;;13.50;13.00;;;;;;;;5045487;28;8910;-80
2021/09/16 03:27:39;;;;;;;;;13.50;10.75;;;;;;;;5042176;28;8876;-80
2021/09/16 03:30:08;;;;;;;;;12.50;11.50;;;;;;;;5044165;28;8883;-84
2021/09/16 03:32:35;;;;;;;;;10.25;8.75;;;;;;;;5043960;28;8860;-77
2021/09/16 03:35:03;;;;;;;;;11.50;11.50;;;;;;;;5059258;28;8882;-87
2021/09/16 03:37:31;;;;;;;;;11.00;11.00;;;;;;;;5044207;28;8856;-86
2021/09/16 03:39:59;;;;;;;;;10.25;9.00;;;;;;;;5043157;28;8908;-84
2021/09/16 03:42:28;;;;;;;;;13.50;10.75;;;;;;;;5044555;28;8897;-81
2021/09/16 03:44:55;;;;;;;;;9.75;9.00;;;;;;;;5040101;28;8871;-80
2021/09/16 03:47:22;;;;;;;;;11.00;8.75;;;;;;;;5034760;28;9490;-85
2021/09/16 03:49:50;;;;;;;;;13.75;12.00;;;;;;;;5051509;28;8872;-79
2021/09/16 03:52:17;;;;;;;;;15.00;13.25;;;;;;;;5043874;28;8894;-79
2021/09/16 03:54:45;;;;;;;;;9.75;9.75;;;;;;;;5026633;28;8907;-77
2021/09/16 03:57:12;;;;;;;;;8.75;8.75;;;;;;;;5024194;28;8878;-79
2021/09/16 03:59:41;;;;;;;;;8.50;8.25;;;;;;;;5042379;28;9034;-84
2021/09/16 04:02:08;;;;;;;;;10.00;10.00;;;;;;;;5040543;28;8821;-87
2021/09/16 04:04:35;;;;;;;;;10.75;10.00;;;;;;;;5043485;28;8978;-75
2021/09/16 04:07:05;;;;;;;;;11.50;10.00;;;;;;;;5046283;28;8868;-76
2021/09/16 04:09:32;;;;;;;;;12.75;12.75;;;;;;;;5040365;28;8883;-78
2021/09/16 04:12:00;;;;;;;;;10.25;9.25;;;;;;;;5035616;28;8982;-88
2021/09/16 04:14:27;;;;;;;;;11.25;11.25;;;;;;;;5045153;28;8902;-82
2021/09/16 04:16:56;;;;;;;;;9.00;9.00;;;;;;;;5035049;28;8856;-78
2021/09/16 04:19:23;;;;;;;;;11.00;11.00;;;;;;;;5043129;28;8880;-79
2021/09/16 04:21:50;;;;;;;;;14.00;12.00;;;;;;;;5032324;28;9679;-78
2021/09/16 04:24:17;;;;;;;;;12.25;10.75;;;;;;;;5042494;28;8892;-78
2021/09/16 04:26:45;;;;;;;;;12.50;12.50;;;;;;;;5042066;28;8902;-76
2021/09/16 04:29:13;;;;;;;;;14.00;12.25;;;;;;;;5042131;28;8892;-77
2021/09/16 04:31:41;;;;;;;;;14.75;11.75;;;;;;;;5040250;28;8862;-79
2021/09/16 04:34:09;;;;;;;;;18.75;18.75;;;;;;;;5043238;28;8955;-76
2021/09/16 04:36:37;;;;;;;;;24.00;21.50;;;;;;;;5041643;28;8884;-78
2021/09/16 04:39:05;;;;;;;;;12.00;12.00;;;;;;;;5040027;28;8977;-81
2021/09/16 04:41:33;;;;;;;;;14.75;14.75;;;;;;;;5022137;28;8888;-77
2021/09/16 04:44:01;;;;;;;;;14.75;13.75;;;;;;;;5040497;28;8852;-84
2021/09/16 04:46:29;;;;;;;;;14.00;12.00;;;;;;;;5041043;28;8894;-78
2021/09/16 04:48:56;;;;;;;;;10.25;10.25;;;;;;;;5040932;28;8910;-77
2021/09/16 04:51:25;;;;;;;;;15.25;11.75;;;;;;;;5040303;28;8994;-76
2021/09/16 04:53:52;;;;;;;;;12.75;12.00;;;;;;;;5038684;28;8868;-77
2021/09/16 04:56:19;;;;;;;;;14.25;13.25;;;;;;;;5041994;28;8894;-77
2021/09/16 04:58:47;;;;;;;;;13.00;11.50;;;;;;;;5040295;28;8902;-77
2021/09/16 05:01:14;;;;;;;;;14.75;13.00;;;;;;;;5038973;28;8850;-84
2021/09/16 05:03:41;;;;;;;;;15.00;13.75;;;;;;;;5040139;28;8876;-76
2021/09/16 05:06:09;;;;;;;;;13.25;11.75;;;;;;;;5040757;28;9668;-77
2021/09/16 05:08:38;;;;;;;;;16.50;12.25;;;;;;;;5042140;28;8910;-76
2021/09/16 05:11:05;;;;;;;;;12.75;11.00;;;;;;;;5056835;28;8933;-76
2021/09/16 05:13:32;;;;;;;;;11.50;11.50;;;;;;;;5039705;28;8909;-78
2021/09/16 05:16:00;;;;;;;;;12.50;12.50;;;;;;;;5036103;28;8922;-76
2021/09/16 05:18:27;;;;;;;;;9.75;9.50;;;;;;;;5022738;28;9073;-78
2021/09/16 05:20:55;;;;;;;;;10.50;10.50;;;;;;;;5042235;28;8895;-77
2021/09/16 05:23:22;;;;;;;;;13.00;11.50;;;;;;;;5046036;28;8895;-82
2021/09/16 05:25:51;;;;;;;;;16.00;13.00;;;;;;;;5027988;28;8878;-82
2021/09/16 05:28:18;;;;;;;;;12.50;12.50;;;;;;;;5061686;28;8891;-79
2021/09/16 05:30:45;;;;;;;;;10.00;10.00;;;;;;;;5043704;28;8915;-78
2021/09/16 05:33:13;;;;;;;;;10.50;10.50;;;;;;;;5044873;28;8875;-79
2021/09/16 05:35:41;;;;;;;;;12.25;12.25;;;;;;;;5042824;28;8860;-76
2021/09/16 05:38:08;;;;;;;;;12.25;12.00;;;;;;;;5043915;28;8884;-78
2021/09/16 05:40:36;;;;;;;;;15.75;13.75;;;;;;;;5044568;28;8859;-78
2021/09/16 05:43:06;;;;;;;;;13.50;13.50;;;;;;;;5043534;28;8990;-77
2021/09/16 05:45:34;;;;;;;;;15.75;13.50;;;;;;;;5042697;28;8864;-80
2021/09/16 05:48:02;;;;;;;;;13.50;12.00;;;;;;;;5044873;28;8849;-74
2021/09/16 05:50:29;;;;;;;;;12.75;11.00;;;;;;;;5041579;28;8888;-73
2021/09/16 05:52:57;;;;;;;;;12.50;12.50;;;;;;;;5042438;28;8864;-74
2021/09/16 05:55:24;;;;;;;;;11.00;11.00;;;;;;;;5044597;28;9030;-74
2021/09/16 05:57:51;;;;;;;;;16.25;14.50;;;;;;;;5060408;28;8907;-74
2021/09/16 06:00:23;;;;;;;;;11.25;11.25;;;;;;;;5038122;28;8871;-74
2021/09/16 06:02:50;;;;;;;;;13.50;13.50;;;;;;;;5045274;28;8884;-74
2021/09/16 06:05:18;;;;;;;;;10.25;10.25;;;;;;;;5044655;28;8962;-74
2021/09/16 06:07:45;;;;;;;;;13.50;11.75;;;;;;;;5044230;28;8903;-74
2021/09/16 06:10:12;;;;;;;;;12.75;12.75;;;;;;;;5045242;28;8836;-73
2021/09/16 06:12:39;;;;;;;;;13.00;13.00;;;;;;;;5041960;28;8872;-73
2021/09/16 06:15:08;;;;;;;;;11.25;11.00;;;;;;;;5041590;28;8880;-73
2021/09/16 06:17:37;;;;;;;;;12.00;12.00;;;;;;;;5026474;28;8900;-74
2021/09/16 06:20:05;;;;;;;;;10.50;10.50;;;;;;;;5044767;28;8868;-74
2021/09/16 06:22:32;;;;;;;;;13.00;11.25;;;;;;;;5044733;28;8987;-74
2021/09/16 06:25:00;;;;;;;;;12.00;12.00;;;;;;;;5043509;28;9023;-74
2021/09/16 06:27:27;;;;;;;;;11.00;11.00;;;;;;;;5044969;28;8995;-74
2021/09/16 06:29:54;;;;;;;;;11.50;11.50;;;;;;;;5040296;28;8863;-74
2021/09/16 06:32:22;;;;;;;;;12.50;12.50;;;;;;;;5042280;28;8897;-74
2021/09/16 06:34:51;;;;;;;;;12.00;12.00;;;;;;;;5043808;28;8876;-73
2021/09/16 06:37:18;;;;;;;;;12.75;12.50;;;;;;;;5043906;28;9768;-73
2021/09/16 06:39:47;;;;;;;;;13.75;13.25;;;;;;;;5043482;28;8978;-74
2021/09/16 06:42:14;;;;;;;;;13.00;11.50;;;;;;;;5045058;28;8957;-73
2021/09/16 06:44:41;;;;;;;;;14.00;13.50;;;;;;;;5044880;28;8991;-74
2021/09/16 06:47:09;;;;;;;;;11.50;11.50;;;;;;;;5042569;28;8998;-73
2021/09/16 06:49:40;;;;;;;;;14.75;14.75;;;;;;;;5045197;28;8974;-74
2021/09/16 06:52:09;;;;;;;;;18.00;17.75;;;;;;;;5042026;28;8844;-72
2021/09/16 06:54:36;;;;;;;;;16.50;15.50;;;;;;;;5042373;28;9609;-74
2021/09/16 06:57:04;;;;;;;;;16.00;16.00;;;;;;;;5040736;28;8941;-75
2021/09/16 06:59:31;;;;;;;;;20.25;14.75;;;;;;;;5041227;28;8978;-75
2021/09/16 07:01:59;;;;;;;;;12.75;12.75;;;;;;;;5041507;28;8844;-75
2021/09/16 07:04:26;;;;;;;;;18.50;18.25;;;;;;;;5042548;28;8987;-74
2021/09/16 07:06:53;;;;;;;;;21.50;15.75;;;;;;;;5043073;28;8922;-74
2021/09/16 07:09:22;;;;;;;;;20.25;17.75;;;;;;;;5042493;28;9749;-73
2021/09/16 07:11:49;;;;;;;;;16.75;14.00;;;;;;;;5042457;28;8991;-74
2021/09/16 07:14:17;;;;;;;;;14.25;14.25;;;;;;;;5040354;28;9480;-74
2021/09/16 07:16:44;;;;;;;;;17.25;16.75;;;;;;;;5035660;28;8933;-73
2021/09/16 07:19:11;;;;;;;;;21.00;20.75;;;;;;;;5037748;28;8876;-73
2021/09/16 07:21:39;;;;;;;;;15.75;14.25;;;;;;;;5039297;28;8940;-74
2021/09/16 07:24:08;;;;;;;;;20.75;17.50;;;;;;;;5028578;28;8876;-73
2021/09/16 07:26:37;;;;;;;;;16.25;16.25;;;;;;;;5043954;28;9680;-72
2021/09/16 07:29:04;;;;;;;;;16.75;16.25;;;;;;;;5043636;28;8953;-73
2021/09/16 07:31:32;;;;;;;;;14.25;13.75;;;;;;;;5041264;28;8821;-73
2021/09/16 07:33:59;;;;;;;;;14.50;13.75;;;;;;;;5026126;28;9819;-74
2021/09/16 07:36:27;;;;;;;;;13.00;13.00;;;;;;;;5043762;28;8848;-74
2021/09/16 07:38:55;;;;;;;;;14.75;14.75;;;;;;;;5025108;28;9006;-75
2021/09/16 07:41:22;;;;;;;;;15.50;14.00;;;;;;;;5036930;28;8889;-74
2021/09/16 07:43:51;;;;;;;;;8.50;8.50;;;;;;;;5039716;28;8892;-74
2021/09/16 07:46:18;;;;;;;;;16.50;13.50;;;;;;;;5044597;28;8884;-73
2021/09/16 07:48:47;;;;;;;;;12.25;12.25;;;;;;;;5042206;28;8982;-74
2021/09/16 07:51:15;;;;;;;;;17.00;13.75;;;;;;;;5043650;28;8898;-73
2021/09/16 07:53:42;;;;;;;;;7.00;7.00;;;;;;;;5042186;28;8865;-73
2021/09/16 07:56:11;;;;;;;;;9.75;8.75;;;;;;;;5043670;28;8872;-74
2021/09/16 07:58:38;;;;;;;;;11.50;11.50;;;;;;;;5026278;28;8852;-74
2021/09/16 08:01:07;;;;;;;;;12.75;9.00;;;;;;;;5042037;28;8955;-74
2021/09/16 08:03:34;;;;;;;;;10.00;10.00;;;;;;;;5043349;28;9491;-73
2021/09/16 08:06:01;;;;;;;;;10.25;10.25;;;;;;;;5040727;28;9003;-75
2021/09/16 08:08:29;;;;;;;;;14.00;10.75;;;;;;;;5043535;28;9818;-74
2021/09/16 08:10:56;;;;;;;;;12.75;11.00;;;;;;;;5042937;28;8982;-75
2021/09/16 08:13:24;;;;;;;;;13.25;9.75;;;;;;;;5035459;28;9500;-74
2021/09/16 08:15:52;;;;;;;;;16.25;14.75;;;;;;;;5043322;28;8880;-75
2021/09/16 08:18:20;;;;;;;;;8.50;8.50;;;;;;;;5045612;28;9702;-74
2021/09/16 08:20:49;;;;;;;;;8.50;8.50;;;;;;;;5037841;28;8887;-74
2021/09/16 08:23:17;;;;;;;;;9.00;7.75;;;;;;;;5042209;28;8861;-74
2021/09/16 08:25:45;;;;;;;;;7.80;7.80;;;;;;;;5043856;28;9010;-74
2021/09/16 08:28:13;;;;;;;;;9.00;9.00;;;;;;;;5042545;28;8888;-74
2021/09/16 08:30:40;;;;;;;;;12.00;10.60;;;;;;;;5042984;28;8792;-74
2021/09/16 08:33:08;;;;;;;;;8.80;8.80;;;;;;;;5043167;28;8856;-74
2021/09/16 08:35:37;;;;;;;;;6.40;6.40;;;;;;;;5042644;28;8982;-74
2021/09/16 08:38:05;;;;;;;;;6.80;6.80;;;;;;;;5043787;28;9034;-75
2021/09/16 08:40:33;;;;;;;;;10.80;9.00;;;;;;;;5042384;28;8966;-75
2021/09/16 08:43:01;;;;;;;;;8.80;8.80;;;;;;;;5043391;28;8876;-74
2021/09/16 08:45:28;;;;;;;;;7.80;7.80;;;;;;;;5041761;28;8933;-75
2021/09/16 08:47:56;;;;;;;;;7.00;7.00;;;;;;;;5025447;28;8894;-75
2021/09/16 08:50:26;;;;;;;;;6.20;6.20;;;;;;;;5030072;28;8931;-75
2021/09/16 08:52:55;;;;;;;;;9.80;8.60;;;;;;;;5041692;28;8967;-74
2021/09/16 08:55:24;;;;;;;;;5.80;5.80;;;;;;;;5044244;28;9002;-75
2021/09/16 08:57:56;;;;;;;;;7.00;7.00;;;;;;;;5044872;28;8884;-75
2021/09/16 09:00:24;;;;;;;;;10.00;7.00;;;;;;;;5044702;28;8901;-76
2021/09/16 09:02:53;;;;;;;;;6.80;6.80;;;;;;;;5045059;28;8856;-76
2021/09/16 09:05:22;;;;;;;;;5.80;5.80;;;;;;;;5046578;28;8998;-77
2021/09/16 09:07:50;;;;;;;;;10.00;7.20;;;;;;;;5045245;28;8987;-77
2021/09/16 09:10:37;;;;;;;;;8.00;7.80;;;;;;;;5045949;28;8942;-76
2021/09/16 09:13:06;;;;;;;;;5.40;5.40;;;;;;;;5047650;28;8892;-77
2021/09/16 09:15:34;;;;;;;;;6.20;6.00;;;;;;;;5036717;28;8965;-77
2021/09/16 09:18:06;;;;;;;;;6.60;6.60;;;;;;;;5046804;28;9664;-77
2021/09/16 09:20:35;;;;;;;;;7.00;5.80;;;;;;;;5036664;28;8879;-78
2021/09/16 09:23:22;;;;;;;;;6.00;6.00;;;;;;;;5045286;28;8871;-78
2021/09/16 09:25:51;;;;;;;;;4.00;4.00;;;;;;;;5046415;28;8852;-78
2021/09/16 09:28:28;;;;;;;;;5.00;5.00;;;;;;;;5043138;28;8965;-76
2021/09/16 09:30:55;;;;;;;;;5.40;5.00;;;;;;;;5046068;28;8835;-77
2021/09/16 09:33:29;;;;;;;;;3.00;3.00;;;;;;;;5045251;28;8987;-77
2021/09/16 09:35:56;;;;;;;;;4.20;3.00;;;;;;;;5045237;28;8876;-77
2021/09/16 09:38:26;;;;;;;;;5.40;5.40;;;;;;;;5046651;28;9002;-78
2021/09/16 09:40:58;;;;;;;;;5.00;5.00;;;;;;;;5044998;28;8888;-78
2021/09/16 09:43:27;;;;;;;;;8.80;7.00;;;;;;;;5046591;28;8879;-78
2021/09/16 09:45:59;;;;;;;;;4.40;3.80;;;;;;;;5044497;28;8991;-77
2021/09/16 09:48:27;;;;;;;;;4.20;3.00;;;;;;;;5045883;28;8880;-77
2021/09/16 09:50:55;;;;;;;;;4.00;4.00;;;;;;;;5045968;28;8898;-78
2021/09/16 09:53:23;;;;;;;;;2.40;2.40;;;;;;;;5043258;28;8982;-76
2021/09/16 09:55:51;;;;;;;;;1.00;1.00;;;;;;;;5027665;28;8895;-77
2021/09/16 09:58:32;;;;;;;;;5.40;3.40;;;;;;;;5044857;28;8909;-77
2021/09/16 10:01:02;;;;;;;;;3.00;3.00;;;;;;;;5044964;28;8832;-77
2021/09/16 10:03:30;;;;;;;;;1.80;1.80;;;;;;;;5043758;28;8991;-77
2021/09/16 10:06:10;;;;;;;;;3.00;3.00;;;;;;;;5045195;28;8945;-78
2021/09/16 10:08:38;;;;;;;;;5.40;4.20;;;;;;;;5045742;28;8868;-78
2021/09/16 10:11:05;;;;;;;;;2.60;2.60;;;;;;;;5044404;28;9722;-79
2021/09/16 10:13:35;;;;;;;;;4.60;4.60;;;;;;;;5045498;28;8899;-78
2021/09/16 10:16:04;;;;;;;;;5.60;4.20;;;;;;;;5025898;28;8872;-79
2021/09/16 10:18:33;;;;;;;;;4.00;4.00;;;;;;;;5046170;28;8868;-78
2021/09/16 10:21:02;;;;;;;;;4.20;4.20;;;;;;;;5044883;28;8900;-79
2021/09/16 10:23:30;;;;;;;;;3.60;3.60;;;;;;;;5045817;28;8888;-78
2021/09/16 10:25:57;;;;;;;;;4.60;4.60;;;;;;;;5045974;28;8886;-78
2021/09/16 10:28:25;;;;;;;;;3.40;3.40;;;;;;;;5044669;28;8876;-78
2021/09/16 10:30:54;;;;;;;;;2.40;2.40;;;;;;;;5045713;28;8775;-79
2021/09/16 10:33:29;;;;;;;;;2.00;2.00;;;;;;;;5047136;28;8879;-78
2021/09/16 10:36:08;;;;;;;;;2.00;2.00;;;;;;;;5046012;28;8953;-77
2021/09/16 10:38:39;;;;;;;;;2.00;2.00;;;;;;;;5044683;28;8994;-77
2021/09/16 10:41:32;;;;;;;;;1.80;1.80;;;;;;;;5049424;28;8873;-79
2021/09/16 10:44:19;;;;;;;;;2.80;2.80;;;;;;;;5034545;28;8864;-78
2021/09/16 10:46:48;;;;;;;;;2.60;2.60;;;;;;;;5044176;28;8874;-77
2021/09/16 10:49:35;;;;;;;;;3.00;3.00;;;;;;;;5045525;28;8925;-77
2021/09/16 10:52:19;;;;;;;;;2.00;2.00;;;;;;;;5044629;28;8856;-78
2021/09/16 10:54:51;;;;;;;;;3.80;3.80;;;;;;;;5036816;28;8872;-78
2021/09/16 10:57:20;;;;;;;;;3.80;3.80;;;;;;;;5033918;28;9014;-76
2021/09/16 11:00:15;;;;;;;;;4.00;3.20;;;;;;;;5046174;28;8998;-77
2021/09/16 11:03:23;;;;;;;;;2.80;2.80;;;;;;;;5043737;28;8842;-75
2021/09/16 11:05:57;;;;;;;;;2.60;2.60;;;;;;;;5005492;28;8884;-76
2021/09/16 11:09:01;;;;;;;;;4.20;4.20;;;;;;;;5042818;28;8876;-76
2021/09/16 11:11:53;;;;;;;;;4.60;4.60;;;;;;;;5043939;28;9610;-77
2021/09/16 11:14:36;;;;;;;;;4.00;4.00;;;;;;;;5043111;28;8990;-77
2021/09/16 11:17:08;;;;;;;;;2.60;2.60;;;;;;;;5043630;28;8888;-76
2021/09/16 11:19:45;;;;;;;;;3.20;3.20;;;;;;;;5044793;28;8991;-76
2021/09/16 11:22:13;;;;;;;;;2.60;2.60;;;;;;;;5043393;28;8852;-76
2021/09/16 11:24:42;;;;;;;;;5.80;2.80;;;;;;;;5044523;28;8954;-77
2021/09/16 11:27:12;;;;;;;;;3.20;3.20;;;;;;;;5044626;28;8872;-77
2021/09/16 11:29:44;;;;;;;;;3.20;3.20;;;;;;;;5043549;28;8875;-77
2021/09/16 11:32:12;;;;;;;;;2.00;2.00;;;;;;;;5044303;28;8804;-78
2021/09/16 11:34:53;;;;;;;;;4.40;4.20;;;;;;;;5044621;28;8943;-77
2021/09/16 11:37:28;;;;;;;;;4.80;3.20;;;;;;;;5043895;28;8903;-77
2021/09/16 11:40:01;;;;;;;;;4.00;4.00;;;;;;;;5044383;28;8953;-76
2021/09/16 11:42:31;;;;;;;;;2.80;2.80;;;;;;;;5044033;28;8929;-76
2021/09/16 11:45:10;;;;;;;;;3.60;3.60;;;;;;;;5044094;28;9048;-77
2021/09/16 11:47:42;;;;;;;;;2.40;2.40;;;;;;;;5043461;28;8910;-79
2021/09/16 11:50:25;;;;;;;;;2.80;2.80;;;;;;;;5021455;28;8860;-75
2021/09/16 11:52:58;;;;;;;;;2.80;2.80;;;;;;;;5060732;28;8848;-76
2021/09/16 11:55:27;;;;;;;;;2.00;2.00;;;;;;;;5040646;28;8998;-72
2021/09/16 11:58:03;;;;;;;;;3.00;3.00;;;;;;;;5044715;28;8949;-73
2021/09/16 12:00:35;;;;;;;;;4.80;3.40;;;;;;;;5041369;28;8827;-73
2021/09/16 12:03:04;;;;;;;;;3.00;2.40;;;;;;;;5043072;28;8898;-74
2021/09/16 12:05:49;;;;;;;;;2.40;2.40;;;;;;;;5038453;28;8868;-75
2021/09/16 12:08:25;;;;;;;;;0.60;0.00;;;;;;;;5040915;28;9011;-75
2021/09/16 12:10:56;;;;;;;;;0.00;0.00;;;;;;;;5044290;28;8856;-75
2021/09/16 12:13:24;;;;;;;;;2.00;2.00;;;;;;;;5024540;28;9903;-75
2021/09/16 12:15:57;;;;;;;;;1.40;1.40;;;;;;;;5042347;28;8941;-75
2021/09/16 12:18:25;;;;;;;;;3.00;3.00;;;;;;;;5042114;28;8892;-76
2021/09/16 12:20:54;;;;;;;;;1.00;1.00;;;;;;;;5043884;28;8868;-75
2021/09/16 12:23:23;;;;;;;;;4.40;3.00;;;;;;;;5058008;28;8962;-75
2021/09/16 12:25:54;;;;;;;;;3.00;3.00;;;;;;;;5043931;28;9009;-75
2021/09/16 12:28:22;;;;;;;;;3.00;3.00;;;;;;;;5043480;28;8934;-75
2021/09/16 12:30:49;;;;;;;;;4.20;4.20;;;;;;;;5044317;28;10387;-75
2021/09/16 12:33:37;;;;;;;;;4.60;3.40;;;;;;;;5029956;28;8979;-75
2021/09/16 12:36:15;;;;;;;;;3.80;3.80;;;;;;;;5044300;28;8897;-75
2021/09/16 12:38:44;;;;;;;;;4.00;4.00;;;;;;;;5042782;28;9637;-75
2021/09/16 12:41:25;;;;;;;;;5.20;4.60;;;;;;;;5040041;28;8859;-75
2021/09/16 12:44:03;;;;;;;;;3.60;3.60;;;;;;;;5045793;28;9006;-77
2021/09/16 12:46:40;;;;;;;;;3.40;3.40;;;;;;;;5047715;28;8859;-75
2021/09/16 12:49:07;;;;;;;;;1.80;1.80;;;;;;;;5046619;28;9006;-75
2021/09/16 12:51:36;;;;;;;;;5.40;5.00;;;;;;;;5046606;28;8895;-75
2021/09/16 12:54:04;;;;;;;;;4.00;4.00;;;;;;;;5046937;28;8906;-75
2021/09/16 12:56:32;;;;;;;;;5.00;4.00;;;;;;;;5046488;28;8884;-77
2021/09/16 12:59:00;;;;;;;;;6.60;6.60;;;;;;;;5047082;28;8880;-75
2021/09/16 13:01:34;;;;;;;;;4.00;4.00;;;;;;;;5045159;28;10077;-75
2021/09/16 13:04:02;;;;;;;;;3.00;3.00;;;;;;;;5046505;28;8899;-75
2021/09/16 13:06:33;;;;;;;;;2.80;2.80;;;;;;;;5046114;28;8956;-75
2021/09/16 13:09:02;;;;;;;;;3.60;3.60;;;;;;;;5046349;28;8880;-74
2021/09/16 13:11:29;;;;;;;;;3.80;3.80;;;;;;;;5046677;28;8876;-75
2021/09/16 13:14:07;;;;;;;;;3.00;3.00;;;;;;;;5044007;28;8894;-75
2021/09/16 13:16:35;;;;;;;;;3.00;3.00;;;;;;;;5038312;28;9760;-75
2021/09/16 13:19:04;;;;;;;;;4.60;4.60;;;;;;;;5045660;28;8933;-75
2021/09/16 13:21:31;;;;;;;;;4.20;4.20;;;;;;;;5046872;28;8891;-75
2021/09/16 13:23:59;;;;;;;;;5.00;5.00;;;;;;;;5027434;28;8886;-74
2021/09/16 13:26:29;;;;;;;;;4.00;4.00;;;;;;;;5053061;28;8895;-75
2021/09/16 13:28:57;;;;;;;;;4.40;3.20;;;;;;;;5048967;28;8864;-74
2021/09/16 13:31:25;;;;;;;;;4.40;4.40;;;;;;;;5043961;28;8835;-73
2021/09/16 13:33:54;;;;;;;;;4.80;4.80;;;;;;;;5046325;28;8997;-71
2021/09/16 13:36:21;;;;;;;;;4.60;4.60;;;;;;;;5044974;28;8860;-75
2021/09/16 13:38:48;;;;;;;;;6.20;4.60;;;;;;;;5044883;28;8896;-74
2021/09/16 13:41:16;;;;;;;;;3.40;3.40;;;;;;;;5043468;28;8997;-73
2021/09/16 13:43:44;;;;;;;;;1.80;1.80;;;;;;;;5045382;28;8973;-73
2021/09/16 13:46:12;;;;;;;;;4.20;4.20;;;;;;;;5044043;28;8867;-73
2021/09/16 13:48:39;;;;;;;;;5.20;5.20;;;;;;;;5026830;28;8987;-73
2021/09/16 13:51:07;;;;;;;;;5.00;5.00;;;;;;;;5028015;28;8894;-73
2021/09/16 13:53:34;;;;;;;;;3.00;3.00;;;;;;;;5044693;28;9570;-73
2021/09/16 13:56:01;;;;;;;;;2.20;2.20;;;;;;;;5045839;28;8856;-73
2021/09/16 13:58:29;;;;;;;;;3.80;3.80;;;;;;;;5042820;28;8868;-73
2021/09/16 14:00:58;;;;;;;;;3.40;3.40;;;;;;;;5044681;28;8959;-74
2021/09/16 14:03:25;;;;;;;;;4.20;4.20;;;;;;;;5028864;28;8995;-73
2021/09/16 14:05:53;;;;;;;;;3.60;3.60;;;;;;;;5044271;28;8868;-75
2021/09/16 14:08:20;;;;;;;;;4.40;4.40;;;;;;;;5045100;28;8848;-73
2021/09/16 14:10:48;;;;;;;;;3.00;3.00;;;;;;;;5043667;28;8860;-73
2021/09/16 14:13:18;;;;;;;;;4.00;4.00;;;;;;;;5056399;28;8896;-74
2021/09/16 14:15:46;;;;;;;;;3.20;3.20;;;;;;;;5041460;28;8941;-74
2021/09/16 14:18:15;;;;;;;;;3.80;3.80;;;;;;;;5045192;28;8944;-75
2021/09/16 14:20:43;;;;;;;;;4.20;4.20;;;;;;;;5026833;28;8959;-74
2021/09/16 14:23:10;;;;;;;;;4.20;4.20;;;;;;;;5043101;28;8957;-74
2021/09/16 14:25:38;;;;;;;;;4.40;4.40;;;;;;;;5045576;28;8969;-74
2021/09/16 14:28:06;;;;;;;;;3.40;3.40;;;;;;;;5043951;28;8860;-74
2021/09/16 14:30:37;;;;;;;;;5.20;5.20;;;;;;;;5026594;28;8927;-75
2021/09/16 14:33:05;;;;;;;;;3.20;3.20;;;;;;;;5038173;28;8889;-75
2021/09/16 14:35:34;;;;;;;;;3.40;3.40;;;;;;;;5043399;28;8896;-75
2021/09/16 14:38:01;;;;;;;;;6.20;6.20;;;;;;;;5024652;28;8860;-74
2021/09/16 14:40:29;;;;;;;;;5.40;5.40;;;;;;;;5042966;28;8899;-74
2021/09/16 14:42:56;;;;;;;;;6.00;5.20;;;;;;;;5043806;28;9014;-74
2021/09/16 14:45:24;;;;;;;;;5.20;4.00;;;;;;;;5043129;28;8982;-74
2021/09/16 14:47:51;;;;;;;;;4.20;4.20;;;;;;;;5044698;28;8902;-74
2021/09/16 14:50:19;;;;;;;;;4.00;4.00;;;;;;;;5058577;28;9551;-74
2021/09/16 14:52:47;;;;;;;;;6.20;4.20;;;;;;;;5044034;28;8836;-74
2021/09/16 14:55:15;;;;;;;;;4.60;4.60;;;;;;;;5002739;28;9610;-74